sensor_id;sensor_type;location;lat;lon;timestamp;P1;durP1;ratioP1;P2;durP2;ratioP2
22127;SDS011;11230;50.854;6.454;2023-06-22T00:12:58;0.22;;;0.20;;
22127;SDS011;11230;50.854;6.454;2023-06-22T00:17:40;0.82;;;0.57;;
22127;SDS011;11230;50.854;6.454;2023-06-22T00:23:24;0.20;;;0.10;;
22127;SDS011;11230;50.854;6.454;2023-06-22T00:32:47;1.10;;;0.60;;
22127;SDS011;11230;50.854;6.454;2023-06-22T00:37:38;0.30;;;0.30;;
22127;SDS011;11230;50.854;6.454;2023-06-22T00:42:45;3.55;;;0.47;;
22127;SDS011;11230;50.854;6.454;2023-06-22T00:47:46;1.17;;;0.80;;
22127;SDS011;11230;50.854;6.454;2023-06-22T00:52:51;0.28;;;0.28;;
22127;SDS011;11230;50.854;6.454;2023-06-22T01:18:00;0.73;;;0.43;;
22127;SDS011;11230;50.854;6.454;2023-06-22T01:22:49;0.32;;;0.32;;
22127;SDS011;11230;50.854;6.454;2023-06-22T01:27:34;0.30;;;0.30;;
22127;SDS011;11230;50.854;6.454;2023-06-22T01:32:22;0.50;;;0.40;;
22127;SDS011;11230;50.854;6.454;2023-06-22T01:37:04;0.50;;;0.50;;
22127;SDS011;11230;50.854;6.454;2023-06-22T01:41:47;0.55;;;0.45;;
22127;SDS011;11230;50.854;6.454;2023-06-22T01:46:35;0.70;;;0.30;;
22127;SDS011;11230;50.854;6.454;2023-06-22T01:56:50;0.30;;;0.30;;
22127;SDS011;11230;50.854;6.454;2023-06-22T02:01:33;0.30;;;0.30;;
22127;SDS011;11230;50.854;6.454;2023-06-22T02:06:23;0.55;;;0.40;;
22127;SDS011;11230;50.854;6.454;2023-06-22T02:11:06;0.73;;;0.40;;
22127;SDS011;11230;50.854;6.454;2023-06-22T02:15:53;0.75;;;0.75;;
22127;SDS011;11230;50.854;6.454;2023-06-22T02:20:41;0.43;;;0.43;;
22127;SDS011;11230;50.854;6.454;2023-06-22T02:25:23;3.65;;;0.47;;
22127;SDS011;11230;50.854;6.454;2023-06-22T02:30:07;1.27;;;0.47;;
22127;SDS011;11230;50.854;6.454;2023-06-22T02:34:52;1.03;;;0.80;;
22127;SDS011;11230;50.854;6.454;2023-06-22T02:39:33;0.30;;;0.30;;
22127;SDS011;11230;50.854;6.454;2023-06-22T02:44:15;0.40;;;0.40;;
22127;SDS011;11230;50.854;6.454;2023-06-22T02:48:58;0.50;;;0.50;;
22127;SDS011;11230;50.854;6.454;2023-06-22T02:53:42;0.57;;;0.50;;
22127;SDS011;11230;50.854;6.454;2023-06-22T02:58:55;0.38;;;0.30;;
22127;SDS011;11230;50.854;6.454;2023-06-22T03:03:36;1.67;;;0.82;;
22127;SDS011;11230;50.854;6.454;2023-06-22T03:08:27;0.57;;;0.40;;
22127;SDS011;11230;50.854;6.454;2023-06-22T03:13:24;0.45;;;0.45;;
22127;SDS011;11230;50.854;6.454;2023-06-22T03:23:25;0.80;;;0.70;;
22127;SDS011;11230;50.854;6.454;2023-06-22T03:28:06;0.65;;;0.40;;
22127;SDS011;11230;50.854;6.454;2023-06-22T03:38:34;1.23;;;0.55;;
22127;SDS011;11230;50.854;6.454;2023-06-22T03:43:43;2.05;;;1.48;;
22127;SDS011;11230;50.854;6.454;2023-06-22T03:48:26;0.55;;;0.55;;
22127;SDS011;11230;50.854;6.454;2023-06-22T04:08:31;1.10;;;0.88;;
22127;SDS011;11230;50.854;6.454;2023-06-22T04:13:15;0.45;;;0.45;;
22127;SDS011;11230;50.854;6.454;2023-06-22T04:18:15;0.85;;;0.60;;
22127;SDS011;11230;50.854;6.454;2023-06-22T04:23:56;0.68;;;0.55;;
22127;SDS011;11230;50.854;6.454;2023-06-22T04:33:46;0.68;;;0.50;;
22127;SDS011;11230;50.854;6.454;2023-06-22T04:39:30;0.65;;;0.50;;
22127;SDS011;11230;50.854;6.454;2023-06-22T04:59:18;1.98;;;1.00;;
22127;SDS011;11230;50.854;6.454;2023-06-22T05:04:31;0.77;;;0.43;;
22127;SDS011;11230;50.854;6.454;2023-06-22T05:12:12;2.25;;;0.60;;
22127;SDS011;11230;50.854;6.454;2023-06-22T05:14:49;0.60;;;0.60;;
22127;SDS011;11230;50.854;6.454;2023-06-22T05:24:52;1.15;;;1.00;;
22127;SDS011;11230;50.854;6.454;2023-06-22T05:29:41;0.30;;;0.30;;
22127;SDS011;11230;50.854;6.454;2023-06-22T05:34:39;0.77;;;0.70;;
22127;SDS011;11230;50.854;6.454;2023-06-22T05:39:42;0.20;;;0.20;;
22127;SDS011;11230;50.854;6.454;2023-06-22T05:54:59;0.50;;;0.50;;
22127;SDS011;11230;50.854;6.454;2023-06-22T06:00:27;1.38;;;0.95;;
22127;SDS011;11230;50.854;6.454;2023-06-22T06:05:15;0.93;;;0.47;;
22127;SDS011;11230;50.854;6.454;2023-06-22T06:11:00;0.70;;;0.60;;
22127;SDS011;11230;50.854;6.454;2023-06-22T06:25:06;0.55;;;0.43;;
22127;SDS011;11230;50.854;6.454;2023-06-22T06:30:41;0.68;;;0.60;;
22127;SDS011;11230;50.854;6.454;2023-06-22T06:36:30;0.77;;;0.60;;
22127;SDS011;11230;50.854;6.454;2023-06-22T06:45:27;0.50;;;0.50;;
22127;SDS011;11230;50.854;6.454;2023-06-22T06:50:11;0.75;;;0.73;;
22127;SDS011;11230;50.854;6.454;2023-06-22T06:54:53;0.55;;;0.40;;
22127;SDS011;11230;50.854;6.454;2023-06-22T06:59:34;0.88;;;0.50;;
22127;SDS011;11230;50.854;6.454;2023-06-22T07:04:24;0.57;;;0.57;;
22127;SDS011;11230;50.854;6.454;2023-06-22T07:09:05;1.70;;;0.98;;
22127;SDS011;11230;50.854;6.454;2023-06-22T07:13:47;0.65;;;0.60;;
22127;SDS011;11230;50.854;6.454;2023-06-22T07:18:29;1.58;;;1.00;;
22127;SDS011;11230;50.854;6.454;2023-06-22T07:23:13;1.67;;;1.00;;
22127;SDS011;11230;50.854;6.454;2023-06-22T07:27:59;0.80;;;0.57;;
22127;SDS011;11230;50.854;6.454;2023-06-22T07:32:41;3.60;;;1.40;;
22127;SDS011;11230;50.854;6.454;2023-06-22T07:37:23;1.92;;;0.70;;
22127;SDS011;11230;50.854;6.454;2023-06-22T07:42:06;3.03;;;0.90;;
22127;SDS011;11230;50.854;6.454;2023-06-22T07:46:48;0.73;;;0.73;;
22127;SDS011;11230;50.854;6.454;2023-06-22T07:51:29;0.80;;;0.80;;
22127;SDS011;11230;50.854;6.454;2023-06-22T07:56:11;0.85;;;0.85;;
22127;SDS011;11230;50.854;6.454;2023-06-22T08:00:54;0.60;;;0.60;;
22127;SDS011;11230;50.854;6.454;2023-06-22T08:05:35;0.40;;;0.40;;
22127;SDS011;11230;50.854;6.454;2023-06-22T08:10:17;3.38;;;1.17;;
22127;SDS011;11230;50.854;6.454;2023-06-22T08:14:59;2.33;;;0.85;;
22127;SDS011;11230;50.854;6.454;2023-06-22T08:19:44;2.85;;;1.55;;
22127;SDS011;11230;50.854;6.454;2023-06-22T08:24:25;2.70;;;0.98;;
22127;SDS011;11230;50.854;6.454;2023-06-22T08:29:10;1.30;;;1.20;;
22127;SDS011;11230;50.854;6.454;2023-06-22T08:33:54;1.90;;;1.45;;
22127;SDS011;11230;50.854;6.454;2023-06-22T08:38:39;1.70;;;1.30;;
22127;SDS011;11230;50.854;6.454;2023-06-22T08:43:20;1.55;;;1.10;;
22127;SDS011;11230;50.854;6.454;2023-06-22T08:48:02;1.08;;;0.90;;
22127;SDS011;11230;50.854;6.454;2023-06-22T08:52:44;1.65;;;1.35;;
22127;SDS011;11230;50.854;6.454;2023-06-22T08:57:27;1.35;;;1.13;;
22127;SDS011;11230;50.854;6.454;2023-06-22T09:02:13;1.30;;;1.08;;
22127;SDS011;11230;50.854;6.454;2023-06-22T09:06:55;1.15;;;1.05;;
22127;SDS011;11230;50.854;6.454;2023-06-22T09:11:36;1.58;;;0.98;;
22127;SDS011;11230;50.854;6.454;2023-06-22T09:16:19;1.35;;;1.10;;
22127;SDS011;11230;50.854;6.454;2023-06-22T09:21:01;1.45;;;1.25;;
22127;SDS011;11230;50.854;6.454;2023-06-22T09:25:42;1.75;;;1.05;;
22127;SDS011;11230;50.854;6.454;2023-06-22T09:30:23;1.75;;;1.23;;
22127;SDS011;11230;50.854;6.454;2023-06-22T09:35:07;2.08;;;0.93;;
22127;SDS011;11230;50.854;6.454;2023-06-22T09:39:50;1.38;;;1.15;;
22127;SDS011;11230;50.854;6.454;2023-06-22T09:44:31;1.20;;;1.00;;
22127;SDS011;11230;50.854;6.454;2023-06-22T09:49:12;1.92;;;0.80;;
22127;SDS011;11230;50.854;6.454;2023-06-22T09:53:56;1.67;;;0.85;;
22127;SDS011;11230;50.854;6.454;2023-06-22T09:58:38;2.47;;;1.40;;
22127;SDS011;11230;50.854;6.454;2023-06-22T10:03:19;1.20;;;0.95;;
22127;SDS011;11230;50.854;6.454;2023-06-22T10:08:01;1.15;;;0.85;;
22127;SDS011;11230;50.854;6.454;2023-06-22T10:12:45;1.35;;;1.00;;
22127;SDS011;11230;50.854;6.454;2023-06-22T10:17:27;1.48;;;1.30;;
22127;SDS011;11230;50.854;6.454;2023-06-22T10:22:09;1.75;;;1.20;;
22127;SDS011;11230;50.854;6.454;2023-06-22T10:26:50;1.75;;;1.45;;
22127;SDS011;11230;50.854;6.454;2023-06-22T10:31:34;1.95;;;1.42;;
22127;SDS011;11230;50.854;6.454;2023-06-22T10:36:15;3.22;;;1.58;;
22127;SDS011;11230;50.854;6.454;2023-06-22T10:40:57;1.95;;;1.42;;
22127;SDS011;11230;50.854;6.454;2023-06-22T10:45:38;4.22;;;2.53;;
22127;SDS011;11230;50.854;6.454;2023-06-22T10:50:21;3.47;;;1.58;;
22127;SDS011;11230;50.854;6.454;2023-06-22T10:55:04;2.35;;;1.50;;
22127;SDS011;11230;50.854;6.454;2023-06-22T10:59:45;2.08;;;1.88;;
22127;SDS011;11230;50.854;6.454;2023-06-22T11:04:27;2.38;;;1.52;;
22127;SDS011;11230;50.854;6.454;2023-06-22T11:09:10;1.35;;;1.00;;
22127;SDS011;11230;50.854;6.454;2023-06-22T11:13:52;1.60;;;1.45;;
22127;SDS011;11230;50.854;6.454;2023-06-22T11:18:34;2.13;;;1.83;;
22127;SDS011;11230;50.854;6.454;2023-06-22T11:23:15;3.80;;;2.03;;
22127;SDS011;11230;50.854;6.454;2023-06-22T11:27:58;1.02;;;0.85;;
22127;SDS011;11230;50.854;6.454;2023-06-22T11:32:39;1.42;;;1.08;;
22127;SDS011;11230;50.854;6.454;2023-06-22T11:37:21;1.77;;;1.45;;
22127;SDS011;11230;50.854;6.454;2023-06-22T11:42:02;2.08;;;1.23;;
22127;SDS011;11230;50.854;6.454;2023-06-22T11:46:45;2.22;;;1.52;;
22127;SDS011;11230;50.854;6.454;2023-06-22T11:51:27;2.70;;;1.60;;
22127;SDS011;11230;50.854;6.454;2023-06-22T11:56:11;1.92;;;1.73;;
22127;SDS011;11230;50.854;6.454;2023-06-22T12:00:53;2.30;;;1.35;;
22127;SDS011;11230;50.854;6.454;2023-06-22T12:05:53;1.30;;;1.20;;
22127;SDS011;11230;50.854;6.454;2023-06-22T12:15:15;2.55;;;1.27;;
22127;SDS011;11230;50.854;6.454;2023-06-22T12:19:58;2.63;;;1.52;;
22127;SDS011;11230;50.854;6.454;2023-06-22T12:24:41;2.38;;;1.92;;
22127;SDS011;11230;50.854;6.454;2023-06-22T12:29:22;1.15;;;0.90;;
22127;SDS011;11230;50.854;6.454;2023-06-22T12:34:04;1.30;;;1.17;;
22127;SDS011;11230;50.854;6.454;2023-06-22T12:38:45;6.88;;;1.52;;
22127;SDS011;11230;50.854;6.454;2023-06-22T12:43:28;3.90;;;1.70;;
22127;SDS011;11230;50.854;6.454;2023-06-22T12:48:10;1.73;;;1.48;;
22127;SDS011;11230;50.854;6.454;2023-06-22T12:52:52;1.92;;;1.55;;
22127;SDS011;11230;50.854;6.454;2023-06-22T12:57:34;1.60;;;1.33;;
22127;SDS011;11230;50.854;6.454;2023-06-22T13:02:17;3.67;;;1.73;;
22127;SDS011;11230;50.854;6.454;2023-06-22T13:06:58;1.83;;;1.17;;
22127;SDS011;11230;50.854;6.454;2023-06-22T13:11:40;1.90;;;1.52;;
22127;SDS011;11230;50.854;6.454;2023-06-22T13:16:22;4.65;;;2.42;;
22127;SDS011;11230;50.854;6.454;2023-06-22T13:21:05;1.63;;;1.52;;
22127;SDS011;11230;50.854;6.454;2023-06-22T13:25:46;2.42;;;1.40;;
22127;SDS011;11230;50.854;6.454;2023-06-22T13:30:28;4.30;;;1.52;;
22127;SDS011;11230;50.854;6.454;2023-06-22T13:35:10;2.42;;;1.73;;
22127;SDS011;11230;50.854;6.454;2023-06-22T13:39:53;3.67;;;1.73;;
22127;SDS011;11230;50.854;6.454;2023-06-22T13:44:39;5.63;;;2.17;;
22127;SDS011;11230;50.854;6.454;2023-06-22T13:49:21;1.75;;;1.65;;
22127;SDS011;11230;50.854;6.454;2023-06-22T13:54:02;2.83;;;2.10;;
22127;SDS011;11230;50.854;6.454;2023-06-22T13:58:46;3.35;;;1.85;;
22127;SDS011;11230;50.854;6.454;2023-06-22T14:03:28;3.17;;;1.55;;
22127;SDS011;11230;50.854;6.454;2023-06-22T14:08:11;3.45;;;2.10;;
22127;SDS011;11230;50.854;6.454;2023-06-22T14:12:53;2.58;;;2.00;;
22127;SDS011;11230;50.854;6.454;2023-06-22T14:17:36;2.42;;;1.35;;
22127;SDS011;11230;50.854;6.454;2023-06-22T14:22:18;1.88;;;0.73;;
22127;SDS011;11230;50.854;6.454;2023-06-22T14:26:59;2.50;;;1.50;;
22127;SDS011;11230;50.854;6.454;2023-06-22T14:31:44;1.20;;;1.10;;
22127;SDS011;11230;50.854;6.454;2023-06-22T14:36:27;12.63;;;2.30;;
22127;SDS011;11230;50.854;6.454;2023-06-22T14:41:09;1.80;;;1.70;;
22127;SDS011;11230;50.854;6.454;2023-06-22T14:45:50;1.50;;;1.40;;
22127;SDS011;11230;50.854;6.454;2023-06-22T14:50:31;2.38;;;1.88;;
22127;SDS011;11230;50.854;6.454;2023-06-22T14:55:14;2.72;;;1.83;;
22127;SDS011;11230;50.854;6.454;2023-06-22T14:59:57;3.28;;;2.30;;
22127;SDS011;11230;50.854;6.454;2023-06-22T15:09:22;2.50;;;2.30;;
22127;SDS011;11230;50.854;6.454;2023-06-22T15:14:05;7.70;;;3.63;;
22127;SDS011;11230;50.854;6.454;2023-06-22T15:18:47;5.45;;;3.10;;
22127;SDS011;11230;50.854;6.454;2023-06-22T15:23:29;4.68;;;2.97;;
22127;SDS011;11230;50.854;6.454;2023-06-22T15:28:10;2.70;;;1.80;;
22127;SDS011;11230;50.854;6.454;2023-06-22T15:32:53;6.70;;;2.72;;
22127;SDS011;11230;50.854;6.454;2023-06-22T15:37:34;2.65;;;1.85;;
22127;SDS011;11230;50.854;6.454;2023-06-22T15:42:16;1.63;;;1.52;;
22127;SDS011;11230;50.854;6.454;2023-06-22T15:46:57;2.45;;;1.92;;
22127;SDS011;11230;50.854;6.454;2023-06-22T15:51:41;3.78;;;2.00;;
22127;SDS011;11230;50.854;6.454;2023-06-22T15:56:23;3.00;;;2.30;;
22127;SDS011;11230;50.854;6.454;2023-06-22T16:01:05;2.45;;;1.75;;
22127;SDS011;11230;50.854;6.454;2023-06-22T16:05:46;0.68;;;0.60;;
22127;SDS011;11230;50.854;6.454;2023-06-22T16:10:29;0.57;;;0.55;;
22127;SDS011;11230;50.854;6.454;2023-06-22T16:15:11;1.05;;;0.55;;
22127;SDS011;11230;50.854;6.454;2023-06-22T16:19:53;0.50;;;0.50;;
22127;SDS011;11230;50.854;6.454;2023-06-22T16:24:35;0.30;;;0.30;;
22127;SDS011;11230;50.854;6.454;2023-06-22T16:29:18;0.45;;;0.45;;
22127;SDS011;11230;50.854;6.454;2023-06-22T16:34:00;2.13;;;1.67;;
22127;SDS011;11230;50.854;6.454;2023-06-22T16:38:42;2.20;;;1.88;;
22127;SDS011;11230;50.854;6.454;2023-06-22T16:43:24;2.55;;;2.05;;
22127;SDS011;11230;50.854;6.454;2023-06-22T16:48:07;1.33;;;1.13;;
22127;SDS011;11230;50.854;6.454;2023-06-22T16:52:49;2.53;;;1.80;;
22127;SDS011;11230;50.854;6.454;2023-06-22T16:57:31;1.98;;;1.33;;
22127;SDS011;11230;50.854;6.454;2023-06-22T17:02:14;3.15;;;1.83;;
22127;SDS011;11230;50.854;6.454;2023-06-22T17:07:01;5.90;;;2.92;;
22127;SDS011;11230;50.854;6.454;2023-06-22T17:11:45;4.05;;;2.20;;
22127;SDS011;11230;50.854;6.454;2023-06-22T17:16:27;3.65;;;1.45;;
22127;SDS011;11230;50.854;6.454;2023-06-22T17:21:10;2.38;;;2.15;;
22127;SDS011;11230;50.854;6.454;2023-06-22T17:25:53;4.03;;;2.67;;
22127;SDS011;11230;50.854;6.454;2023-06-22T17:30:36;4.50;;;2.15;;
22127;SDS011;11230;50.854;6.454;2023-06-22T17:35:17;1.77;;;1.48;;
22127;SDS011;11230;50.854;6.454;2023-06-22T17:39:59;3.28;;;2.28;;
22127;SDS011;11230;50.854;6.454;2023-06-22T17:44:42;5.20;;;1.88;;
22127;SDS011;11230;50.854;6.454;2023-06-22T17:49:25;4.60;;;2.92;;
22127;SDS011;11230;50.854;6.454;2023-06-22T17:54:07;3.28;;;2.60;;
22127;SDS011;11230;50.854;6.454;2023-06-22T17:58:52;2.47;;;1.80;;
22127;SDS011;11230;50.854;6.454;2023-06-22T18:03:35;1.40;;;1.30;;
22127;SDS011;11230;50.854;6.454;2023-06-22T18:08:19;1.33;;;0.95;;
22127;SDS011;11230;50.854;6.454;2023-06-22T18:13:04;1.13;;;0.93;;
22127;SDS011;11230;50.854;6.454;2023-06-22T18:17:46;1.50;;;0.82;;
22127;SDS011;11230;50.854;6.454;2023-06-22T18:22:29;2.20;;;1.08;;
22127;SDS011;11230;50.854;6.454;2023-06-22T18:27:11;0.77;;;0.77;;
22127;SDS011;11230;50.854;6.454;2023-06-22T18:31:52;0.52;;;0.45;;
22127;SDS011;11230;50.854;6.454;2023-06-22T18:36:34;0.50;;;0.50;;
22127;SDS011;11230;50.854;6.454;2023-06-22T18:41:21;0.47;;;0.45;;
22127;SDS011;11230;50.854;6.454;2023-06-22T18:51:09;0.57;;;0.52;;
22127;SDS011;11230;50.854;6.454;2023-06-22T18:55:51;1.08;;;0.63;;
22127;SDS011;11230;50.854;6.454;2023-06-22T19:00:35;0.43;;;0.35;;
22127;SDS011;11230;50.854;6.454;2023-06-22T19:05:17;0.52;;;0.50;;
22127;SDS011;11230;50.854;6.454;2023-06-22T19:15:03;0.60;;;0.60;;
22127;SDS011;11230;50.854;6.454;2023-06-22T19:19:50;0.65;;;0.65;;
22127;SDS011;11230;50.854;6.454;2023-06-22T19:24:47;1.02;;;1.00;;
22127;SDS011;11230;50.854;6.454;2023-06-22T19:29:28;0.90;;;0.60;;
22127;SDS011;11230;50.854;6.454;2023-06-22T19:34:11;0.63;;;0.63;;
22127;SDS011;11230;50.854;6.454;2023-06-22T19:38:55;2.08;;;0.98;;
22127;SDS011;11230;50.854;6.454;2023-06-22T19:43:38;0.97;;;0.60;;
22127;SDS011;11230;50.854;6.454;2023-06-22T19:48:23;1.70;;;1.25;;
22127;SDS011;11230;50.854;6.454;2023-06-22T19:53:07;1.52;;;1.17;;
22127;SDS011;11230;50.854;6.454;2023-06-22T19:57:51;2.70;;;1.55;;
22127;SDS011;11230;50.854;6.454;2023-06-22T20:02:32;1.58;;;1.00;;
22127;SDS011;11230;50.854;6.454;2023-06-22T20:07:14;2.15;;;0.93;;
22127;SDS011;11230;50.854;6.454;2023-06-22T20:11:58;1.33;;;0.95;;
22127;SDS011;11230;50.854;6.454;2023-06-22T20:16:46;1.60;;;1.40;;
22127;SDS011;11230;50.854;6.454;2023-06-22T20:21:33;2.13;;;1.25;;
22127;SDS011;11230;50.854;6.454;2023-06-22T20:26:15;1.95;;;0.90;;
22127;SDS011;11230;50.854;6.454;2023-06-22T20:31:00;1.40;;;1.30;;
22127;SDS011;11230;50.854;6.454;2023-06-22T20:35:43;7.07;;;1.48;;
22127;SDS011;11230;50.854;6.454;2023-06-22T20:40:26;1.05;;;1.02;;
22127;SDS011;11230;50.854;6.454;2023-06-22T20:45:10;1.30;;;1.20;;
22127;SDS011;11230;50.854;6.454;2023-06-22T20:49:52;2.03;;;1.58;;
22127;SDS011;11230;50.854;6.454;2023-06-22T20:54:38;2.53;;;2.33;;
22127;SDS011;11230;50.854;6.454;2023-06-22T20:59:19;1.63;;;1.52;;
22127;SDS011;11230;50.854;6.454;2023-06-22T21:04:03;1.92;;;1.45;;
22127;SDS011;11230;50.854;6.454;2023-06-22T21:08:44;2.63;;;1.35;;
22127;SDS011;11230;50.854;6.454;2023-06-22T21:13:27;5.05;;;2.40;;
22127;SDS011;11230;50.854;6.454;2023-06-22T21:18:10;4.20;;;2.00;;
22127;SDS011;11230;50.854;6.454;2023-06-22T21:22:51;3.70;;;1.20;;
22127;SDS011;11230;50.854;6.454;2023-06-22T21:27:33;3.17;;;1.67;;
22127;SDS011;11230;50.854;6.454;2023-06-22T21:32:16;2.05;;;1.33;;
22127;SDS011;11230;50.854;6.454;2023-06-22T21:36:58;1.30;;;1.20;;
22127;SDS011;11230;50.854;6.454;2023-06-22T21:41:40;1.08;;;0.98;;
22127;SDS011;11230;50.854;6.454;2023-06-22T21:46:21;3.28;;;1.98;;
22127;SDS011;11230;50.854;6.454;2023-06-22T21:51:04;1.67;;;1.38;;
22127;SDS011;11230;50.854;6.454;2023-06-22T21:55:46;2.10;;;1.48;;
22127;SDS011;11230;50.854;6.454;2023-06-22T22:00:28;2.38;;;1.75;;
22127;SDS011;11230;50.854;6.454;2023-06-22T22:05:10;2.20;;;1.83;;
22127;SDS011;11230;50.854;6.454;2023-06-22T22:09:53;2.78;;;1.60;;
22127;SDS011;11230;50.854;6.454;2023-06-22T22:14:34;2.65;;;1.73;;
22127;SDS011;11230;50.854;6.454;2023-06-22T22:19:16;3.42;;;2.15;;
22127;SDS011;11230;50.854;6.454;2023-06-22T22:23:57;7.60;;;2.05;;
22127;SDS011;11230;50.854;6.454;2023-06-22T22:28:40;2.17;;;1.38;;
22127;SDS011;11230;50.854;6.454;2023-06-22T22:33:22;1.75;;;1.63;;
22127;SDS011;11230;50.854;6.454;2023-06-22T22:38:03;1.50;;;1.40;;
22127;SDS011;11230;50.854;6.454;2023-06-22T22:42:45;2.20;;;2.00;;
22127;SDS011;11230;50.854;6.454;2023-06-22T22:47:27;1.65;;;1.45;;
22127;SDS011;11230;50.854;6.454;2023-06-22T22:52:09;2.53;;;2.08;;
22127;SDS011;11230;50.854;6.454;2023-06-22T22:56:50;2.03;;;1.88;;
22127;SDS011;11230;50.854;6.454;2023-06-22T23:01:32;1.50;;;1.40;;
22127;SDS011;11230;50.854;6.454;2023-06-22T23:06:15;2.22;;;1.98;;
22127;SDS011;11230;50.854;6.454;2023-06-22T23:10:56;3.08;;;2.13;;
22127;SDS011;11230;50.854;6.454;2023-06-22T23:15:38;1.67;;;1.58;;
22127;SDS011;11230;50.854;6.454;2023-06-22T23:20:19;2.13;;;1.90;;
22127;SDS011;11230;50.854;6.454;2023-06-22T23:25:03;3.63;;;2.20;;
22127;SDS011;11230;50.854;6.454;2023-06-22T23:29:44;1.92;;;1.70;;
22127;SDS011;11230;50.854;6.454;2023-06-22T23:34:26;4.72;;;1.30;;
22127;SDS011;11230;50.854;6.454;2023-06-22T23:39:09;1.98;;;1.77;;
22127;SDS011;11230;50.854;6.454;2023-06-22T23:43:53;4.10;;;1.60;;
22127;SDS011;11230;50.854;6.454;2023-06-22T23:48:35;4.30;;;1.50;;
22127;SDS011;11230;50.854;6.454;2023-06-22T23:53:17;3.38;;;2.22;;
22127;SDS011;11230;50.854;6.454;2023-06-22T23:57:59;2.90;;;1.50;;
